Sitka Rocky Gutierrez Airport

Date: 2024-06-11 06:49:00Z

Type: SPECI

Weather: Light Rain

Winds: 220° at 6 kts

Visibility: 4

Ceiling (AGL FT): Clouds BROKEN at 700, BROKEN at 1200, OVERCAST at 1900

RAW METAR: PASI 110649Z 22006KT 4SM -RA BR BKN007 BKN012 OVC019 09/07 A2985 RMK AO2 RAB07 P0002

project-image